Time;durP1;ratioP1;P1;durP2;ratioP2;P2;SDS_P1;SDS_P2;PMS_P1;PMS_P2;Temp;Humidity;BMP_temperature;BMP_pressure;BME280_temperature;BME280_humidity;BME280_pressure;Samples;Min_cycle;Max_cycle;Signal;HPM_P1;HPM_P2
2023/12/31 00:01:44;;;;;;;20.50;12.50;;;;;;;-147.86;100.00;-17609.17;105901;1257;72280;-56
2023/12/31 00:04:12;;;;;;;23.50;13.70;;;;;;;-147.86;100.00;-17609.17;105818;1256;60413;-57
2023/12/31 00:06:39;;;;;;;21.60;13.10;;;;;;;-147.86;100.00;-17609.17;105880;1253;60156;-55
2023/12/31 00:09:06;;;;;;;19.70;12.70;;;;;;;-147.86;100.00;-17609.17;105966;1253;72974;-52
2023/12/31 00:11:33;;;;;;;19.90;13.00;;;;;;;-147.86;100.00;-17609.17;105836;1257;64623;-52
2023/12/31 00:14:00;;;;;;;21.80;12.90;;;;;;;-147.86;100.00;-17609.17;105901;1253;72641;-55
2023/12/31 00:16:27;;;;;;;21.80;14.10;;;;;;;-147.86;100.00;-17609.17;105917;1257;60346;-52
2023/12/31 00:18:55;;;;;;;19.20;12.90;;;;;;;-147.86;100.00;-17609.17;105894;1253;60061;-52
2023/12/31 00:21:22;;;;;;;17.20;12.10;;;;;;;-147.86;100.00;-17609.17;105860;1253;72984;-54
2023/12/31 00:23:49;;;;;;;22.00;12.60;;;;;;;-147.86;100.00;-17609.17;105898;1257;63482;-54
2023/12/31 00:26:16;;;;;;;20.00;12.40;;;;;;;-147.86;100.00;-17609.17;105835;1257;72413;-54
2023/12/31 00:28:43;;;;;;;22.00;13.00;;;;;;;-147.86;100.00;-17609.17;105853;1256;60330;-55
2023/12/31 00:31:10;;;;;;;19.20;11.00;;;;;;;-147.86;100.00;-17609.17;105871;1257;59655;-51
2023/12/31 00:33:38;;;;;;;19.80;12.00;;;;;;;-147.86;100.00;-17609.17;105868;1253;73092;-51
2023/12/31 00:36:06;;;;;;;19.10;11.60;;;;;;;-147.86;100.00;-17609.17;105787;1253;64466;-55
2023/12/31 00:38:33;;;;;;;19.60;11.20;;;;;;;-147.86;100.00;-17609.17;105908;1253;72629;-52
2023/12/31 00:41:00;;;;;;;20.50;11.90;;;;;;;-147.86;100.00;-17609.17;105943;1257;60164;-55
2023/12/31 00:43:27;;;;;;;17.50;10.90;;;;;;;-147.86;100.00;-17609.17;105944;1253;60168;-54
2023/12/31 00:45:55;;;;;;;16.90;11.30;;;;;;;-147.86;100.00;-17609.17;105807;1253;72862;-56
2023/12/31 00:48:21;;;;;;;18.50;10.90;;;;;;;-147.86;100.00;-17609.17;105873;1257;64459;-52
2023/12/31 00:50:48;;;;;;;19.90;11.50;;;;;;;-147.86;100.00;-17609.17;105889;1257;72474;-57
2023/12/31 00:53:15;;;;;;;22.90;11.80;;;;;;;-147.86;100.00;-17609.17;105874;1256;60260;-52
2023/12/31 00:55:43;;;;;;;17.80;11.00;;;;;;;-147.86;100.00;-17609.17;105856;1254;60095;-54
2023/12/31 00:58:10;;;;;;;17.80;11.00;;;;;;;-147.86;100.00;-17609.17;105849;1254;73011;-55
2023/12/31 01:00:38;;;;;;;22.30;12.00;;;;;;;-147.86;100.00;-17609.17;105861;1256;64870;-51
2023/12/31 01:03:05;;;;;;;23.20;11.00;;;;;;;-147.86;100.00;-17609.17;105890;1253;72627;-54
2023/12/31 01:05:33;;;;;;;16.80;11.40;;;;;;;-147.86;100.00;-17609.17;105841;1256;60067;-53
2023/12/31 01:08:00;;;;;;;19.20;11.90;;;;;;;-147.86;100.00;-17609.17;105890;1252;60267;-53
2023/12/31 01:10:26;;;;;;;18.30;11.00;;;;;;;-147.86;100.00;-17609.17;105886;1252;73075;-55
2023/12/31 01:12:54;;;;;;;19.70;11.30;;;;;;;-147.86;100.00;-17609.17;105873;1257;64683;-56
2023/12/31 01:15:22;;;;;;;21.00;11.90;;;;;;;-147.86;100.00;-17609.17;105873;1257;72621;-56
2023/12/31 01:17:49;;;;;;;21.30;11.30;;;;;;;-147.86;100.00;-17609.17;105867;1257;60392;-56
2023/12/31 01:20:16;;;;;;;16.40;11.00;;;;;;;-147.86;100.00;-17609.17;105723;1253;60248;-55
2023/12/31 01:22:43;;;;;;;15.70;10.50;;;;;;;-147.86;100.00;-17609.17;105964;1253;72995;-55
2023/12/31 01:25:10;;;;;;;20.50;11.20;;;;;;;-147.86;100.00;-17609.17;105885;1257;64675;-52
2023/12/31 01:27:37;;;;;;;19.60;11.40;;;;;;;-147.86;100.00;-17609.17;105862;1254;71164;-52
2023/12/31 01:30:05;;;;;;;19.90;12.10;;;;;;;-147.86;100.00;-17609.17;105886;1256;60433;-53
2023/12/31 01:32:32;;;;;;;20.00;11.50;;;;;;;-147.86;100.00;-17609.17;105800;1253;60824;-54
2023/12/31 01:35:00;;;;;;;21.30;12.70;;;;;;;-147.86;100.00;-17609.17;105841;1253;73789;-55
2023/12/31 01:37:27;;;;;;;20.00;12.00;;;;;;;-147.86;100.00;-17609.17;105881;1254;63380;-53
2023/12/31 01:39:57;;;;;;;18.40;11.80;;;;;;;-147.86;100.00;-17609.17;105887;1253;71203;-51
2023/12/31 01:42:24;;;;;;;20.80;11.80;;;;;;;-147.86;100.00;-17609.17;105877;1257;60837;-56
2023/12/31 01:44:51;;;;;;;21.80;12.30;;;;;;;-147.86;100.00;-17609.17;105864;1253;60516;-54
2023/12/31 01:47:19;;;;;;;18.10;11.10;;;;;;;-147.86;100.00;-17609.17;105895;1253;73923;-53
2023/12/31 01:49:46;;;;;;;22.50;12.40;;;;;;;-147.86;100.00;-17609.17;105832;1257;63551;-53
2023/12/31 01:52:13;;;;;;;17.60;11.70;;;;;;;-147.86;100.00;-17609.17;105868;1254;71135;-56
2023/12/31 01:54:40;;;;;;;17.50;9.90;;;;;;;-147.86;100.00;-17609.17;105895;1257;60461;-55
2023/12/31 01:57:07;;;;;;;16.60;10.60;;;;;;;-147.86;100.00;-17609.17;105879;1252;60443;-56
2023/12/31 01:59:34;;;;;;;16.20;9.90;;;;;;;-147.86;100.00;-17609.17;105710;1254;73868;-53
2023/12/31 02:02:01;;;;;;;14.20;8.90;;;;;;;-147.86;100.00;-17609.17;105849;1254;64613;-52
2023/12/31 02:04:33;;;;;;;17.50;9.10;;;;;;;-147.86;100.00;-17609.17;105771;1254;72556;-56
2023/12/31 02:07:01;;;;;;;15.30;9.50;;;;;;;-147.86;100.00;-17609.17;105903;1257;60372;-53
2023/12/31 02:09:28;;;;;;;12.90;8.60;;;;;;;-147.86;100.00;-17609.17;105929;1257;60466;-55
2023/12/31 02:11:56;;;;;;;17.90;7.80;;;;;;;-147.86;100.00;-17609.17;105900;1253;73790;-52
2023/12/31 02:14:22;;;;;;;14.60;7.50;;;;;;;-147.86;100.00;-17609.17;105866;1257;64723;-56
2023/12/31 02:16:49;;;;;;;9.90;7.10;;;;;;;-147.86;100.00;-17609.17;105855;1253;72368;-55
2023/12/31 02:19:16;;;;;;;15.90;7.40;;;;;;;-147.86;100.00;-17609.17;105858;1256;61456;-52
2023/12/31 02:21:43;;;;;;;8.40;6.20;;;;;;;-147.86;100.00;-17609.17;105923;1254;60513;-54
2023/12/31 02:24:14;;;;;;;7.50;5.30;;;;;;;-147.86;100.00;-17609.17;105654;1252;73868;-56
2023/12/31 02:26:41;;;;;;;7.30;5.50;;;;;;;-147.86;100.00;-17609.17;105906;1256;63221;-55
2023/12/31 02:29:08;;;;;;;8.40;6.10;;;;;;;-147.86;100.00;-17609.17;105941;1254;72627;-55
2023/12/31 02:31:35;;;;;;;7.70;5.70;;;;;;;-147.86;100.00;-17609.17;105990;1252;60339;-54
2023/12/31 02:34:03;;;;;;;9.00;6.00;;;;;;;-147.86;100.00;-17609.17;105920;1254;60879;-50
2023/12/31 02:36:30;;;;;;;8.30;5.50;;;;;;;-147.86;100.00;-17609.17;105789;1257;72541;-54
2023/12/31 02:38:57;;;;;;;8.20;5.70;;;;;;;-147.86;100.00;-17609.17;105883;1257;64738;-54
2023/12/31 02:41:24;;;;;;;9.40;6.00;;;;;;;-147.86;100.00;-17609.17;105844;1252;72488;-55
2023/12/31 02:43:51;;;;;;;8.50;5.90;;;;;;;-147.86;100.00;-17609.17;105787;1257;60531;-55
2023/12/31 02:46:18;;;;;;;7.60;5.70;;;;;;;-147.86;100.00;-17609.17;105946;1256;60501;-55
2023/12/31 02:48:45;;;;;;;7.70;5.80;;;;;;;-147.86;100.00;-17609.17;105864;1253;73832;-52
2023/12/31 02:51:12;;;;;;;8.90;5.50;;;;;;;-147.86;100.00;-17609.17;105686;1256;64619;-53
2023/12/31 02:53:39;;;;;;;8.60;5.10;;;;;;;-147.86;100.00;-17609.17;105667;1253;72650;-53
2023/12/31 02:56:06;;;;;;;8.60;4.80;;;;;;;-147.86;100.00;-17609.17;105680;1256;61164;-56
2023/12/31 02:58:33;;;;;;;8.00;4.80;;;;;;;-147.86;100.00;-17609.17;105734;1253;60617;-53
2023/12/31 03:01:00;;;;;;;9.90;5.00;;;;;;;-147.86;100.00;-17609.17;105905;1256;73872;-55
2023/12/31 03:03:27;;;;;;;8.40;4.60;;;;;;;-147.86;100.00;-17609.17;105787;1257;64579;-56
2023/12/31 03:05:54;;;;;;;6.70;4.70;;;;;;;-147.86;100.00;-17609.17;105842;1254;73130;-52
2023/12/31 03:08:21;;;;;;;12.70;4.80;;;;;;;-147.86;100.00;-17609.17;105853;1256;61277;-54
2023/12/31 03:10:49;;;;;;;7.80;4.60;;;;;;;-147.86;100.00;-17609.17;105725;1253;60300;-53
2023/12/31 03:13:16;;;;;;;7.30;3.80;;;;;;;-147.86;100.00;-17609.17;105680;1253;73876;-58
2023/12/31 03:15:44;;;;;;;5.50;4.40;;;;;;;-147.86;100.00;-17609.17;105907;1256;64547;-56
2023/12/31 03:18:10;;;;;;;6.40;3.80;;;;;;;-147.86;100.00;-17609.17;105710;1253;72546;-54
2023/12/31 03:20:37;;;;;;;6.70;3.80;;;;;;;-147.86;100.00;-17609.17;105683;1257;61083;-55
2023/12/31 03:23:04;;;;;;;7.80;4.50;;;;;;;-147.86;100.00;-17609.17;105850;1253;60594;-53
2023/12/31 03:25:31;;;;;;;8.00;4.60;;;;;;;-147.86;100.00;-17609.17;105903;1254;74249;-56
2023/12/31 03:27:58;;;;;;;10.70;4.20;;;;;;;-147.86;100.00;-17609.17;105802;1257;64582;-55
2023/12/31 03:30:25;;;;;;;8.70;4.10;;;;;;;-147.86;100.00;-17609.17;105750;1254;71477;-54
2023/12/31 03:32:52;;;;;;;7.70;4.00;;;;;;;-147.86;100.00;-17609.17;105859;1257;61152;-54
2023/12/31 03:35:19;;;;;;;7.10;3.80;;;;;;;-147.86;100.00;-17609.17;105747;1253;60460;-53
2023/12/31 03:37:47;;;;;;;6.40;3.40;;;;;;;-147.86;100.00;-17609.17;105735;1257;73797;-55
2023/12/31 03:40:14;;;;;;;4.40;3.40;;;;;;;-147.86;100.00;-17609.17;105754;1254;64666;-53
2023/12/31 03:42:41;;;;;;;10.30;4.00;;;;;;;-147.86;100.00;-17609.17;105708;1253;72619;-54
2023/12/31 03:45:08;;;;;;;4.00;3.40;;;;;;;-147.86;100.00;-17609.17;105721;1257;61044;-55
2023/12/31 03:47:35;;;;;;;7.30;3.70;;;;;;;-147.86;100.00;-17609.17;105837;1253;60527;-54
2023/12/31 03:50:03;;;;;;;6.20;3.40;;;;;;;-147.86;100.00;-17609.17;105719;1253;73919;-53
2023/12/31 03:52:30;;;;;;;4.90;3.70;;;;;;;-147.86;100.00;-17609.17;105752;1253;63483;-52
2023/12/31 03:54:57;;;;;;;5.70;3.40;;;;;;;-147.86;100.00;-17609.17;105704;1253;72573;-55
2023/12/31 03:57:24;;;;;;;5.60;3.70;;;;;;;-147.86;100.00;-17609.17;105740;1257;61023;-52
2023/12/31 03:59:51;;;;;;;4.30;3.40;;;;;;;-147.86;100.00;-17609.17;105758;1253;60540;-57
2023/12/31 04:02:18;;;;;;;4.10;3.00;;;;;;;-147.86;100.00;-17609.17;105744;1253;73746;-57
2023/12/31 04:04:45;;;;;;;4.60;3.00;;;;;;;-147.86;100.00;-17609.17;105761;1257;64729;-56
2023/12/31 04:07:13;;;;;;;6.20;3.20;;;;;;;-147.86;100.00;-17609.17;105792;1253;72629;-57
2023/12/31 04:09:40;;;;;;;3.80;2.90;;;;;;;-147.86;100.00;-17609.17;105700;1257;60616;-54
2023/12/31 04:12:07;;;;;;;4.60;3.00;;;;;;;-147.86;100.00;-17609.17;105739;1253;60937;-56
2023/12/31 04:14:34;;;;;;;6.10;3.10;;;;;;;-147.86;100.00;-17609.17;105705;1253;73851;-55
2023/12/31 04:17:01;;;;;;;5.10;2.50;;;;;;;-147.86;100.00;-17609.17;105717;1257;64717;-55
2023/12/31 04:19:30;;;;;;;8.30;3.10;;;;;;;-147.86;100.00;-17609.17;105724;1253;71676;-53
2023/12/31 04:21:57;;;;;;;4.50;3.10;;;;;;;-147.86;100.00;-17609.17;105788;1258;60535;-54
2023/12/31 04:24:24;;;;;;;5.80;3.30;;;;;;;-147.86;100.00;-17609.17;105693;1253;60451;-57
2023/12/31 04:26:52;;;;;;;5.00;3.10;;;;;;;-147.86;100.00;-17609.17;105765;1257;72889;-53
2023/12/31 04:29:19;;;;;;;7.00;3.20;;;;;;;-147.86;100.00;-17609.17;105765;1257;64707;-53
2023/12/31 04:31:47;;;;;;;5.30;2.60;;;;;;;-147.86;100.00;-17609.17;105718;1253;72601;-55
2023/12/31 04:34:18;;;;;;;6.10;3.30;;;;;;;-147.86;100.00;-17609.17;105764;1253;60520;-55
2023/12/31 04:36:46;;;;;;;5.10;2.90;;;;;;;-147.86;100.00;-17609.17;105780;1253;60448;-53
2023/12/31 04:39:13;;;;;;;3.70;2.60;;;;;;;-147.86;100.00;-17609.17;105755;1253;72833;-56
2023/12/31 04:41:39;;;;;;;4.30;2.70;;;;;;;-147.86;100.00;-17609.17;105757;1257;64805;-55
2023/12/31 04:44:07;;;;;;;3.40;2.60;;;;;;;-147.86;100.00;-17609.17;105879;1253;72639;-56
2023/12/31 04:46:34;;;;;;;7.00;3.20;;;;;;;-147.86;100.00;-17609.17;105816;1256;60426;-53
2023/12/31 04:49:02;;;;;;;4.10;2.70;;;;;;;-147.86;100.00;-17609.17;105743;1253;60449;-54
2023/12/31 04:51:30;;;;;;;6.00;2.90;;;;;;;-147.86;100.00;-17609.17;105737;1256;73892;-55
2023/12/31 04:53:57;;;;;;;6.20;2.80;;;;;;;-147.86;100.00;-17609.17;105757;1256;64625;-51
2023/12/31 04:56:25;;;;;;;2.80;2.30;;;;;;;-147.86;100.00;-17609.17;105773;1253;72743;-52
2023/12/31 04:58:55;;;;;;;7.50;3.00;;;;;;;-147.86;100.00;-17609.17;105715;1257;60399;-53
2023/12/31 05:01:22;;;;;;;3.40;2.70;;;;;;;-147.86;100.00;-17609.17;105741;1258;60435;-51
2023/12/31 05:03:50;;;;;;;4.50;2.90;;;;;;;-147.86;100.00;-17609.17;105693;1253;73770;-54
2023/12/31 05:06:17;;;;;;;8.40;3.20;;;;;;;-147.86;100.00;-17609.17;105736;1257;64681;-54
2023/12/31 05:08:45;;;;;;;5.10;2.80;;;;;;;-147.86;100.00;-17609.17;105778;1253;72645;-53
2023/12/31 05:11:13;;;;;;;7.30;3.10;;;;;;;-147.86;100.00;-17609.17;105730;1253;60544;-55
2023/12/31 05:13:41;;;;;;;7.40;2.80;;;;;;;-147.86;100.00;-17609.17;105671;1253;60532;-53
2023/12/31 05:16:10;;;;;;;3.00;2.70;;;;;;;-147.86;100.00;-17609.17;105553;1254;73939;-52
2023/12/31 05:18:37;;;;;;;6.50;2.60;;;;;;;-147.86;100.00;-17609.17;105680;1259;64691;-54
2023/12/31 05:21:04;;;;;;;4.80;2.80;;;;;;;-147.86;100.00;-17609.17;105759;1253;72579;-56
2023/12/31 05:23:31;;;;;;;3.50;2.70;;;;;;;-147.86;100.00;-17609.17;105838;1258;60403;-57
2023/12/31 05:25:58;;;;;;;9.50;2.60;;;;;;;-147.86;100.00;-17609.17;105741;1253;60399;-53
2023/12/31 05:28:25;;;;;;;4.50;2.90;;;;;;;-147.86;100.00;-17609.17;105731;1253;72395;-53
2023/12/31 05:30:52;;;;;;;2.70;2.50;;;;;;;-147.86;100.00;-17609.17;105783;1255;64655;-52
2023/12/31 05:33:19;;;;;;;4.00;2.60;;;;;;;-147.86;100.00;-17609.17;105799;1256;72698;-52
2023/12/31 05:35:46;;;;;;;4.10;2.80;;;;;;;-147.86;100.00;-17609.17;105769;1258;60531;-55
2023/12/31 05:38:13;;;;;;;7.60;2.80;;;;;;;-147.86;100.00;-17609.17;105754;1253;60557;-55
2023/12/31 05:40:40;;;;;;;5.70;2.60;;;;;;;-147.86;100.00;-17609.17;105772;1253;74503;-54
2023/12/31 05:43:08;;;;;;;8.00;2.80;;;;;;;-147.86;100.00;-17609.17;105756;1259;64655;-54
2023/12/31 05:45:35;;;;;;;4.90;3.00;;;;;;;-147.86;100.00;-17609.17;105784;1253;72936;-55
2023/12/31 05:48:02;;;;;;;3.60;2.90;;;;;;;-147.86;100.00;-17609.17;105855;1259;60524;-53
2023/12/31 05:50:29;;;;;;;4.80;2.60;;;;;;;-147.86;100.00;-17609.17;105776;1253;60903;-55
2023/12/31 05:52:56;;;;;;;4.20;2.60;;;;;;;-147.86;100.00;-17609.17;105783;1253;73937;-55
2023/12/31 05:55:23;;;;;;;3.80;2.90;;;;;;;-147.86;100.00;-17609.17;105800;1257;64661;-55
2023/12/31 05:57:50;;;;;;;5.00;2.80;;;;;;;-147.86;100.00;-17609.17;105805;1253;72581;-52
2023/12/31 06:00:17;;;;;;;2.90;2.40;;;;;;;-147.86;100.00;-17609.17;105797;1257;60531;-54
2023/12/31 06:02:44;;;;;;;5.00;2.20;;;;;;;-147.86;100.00;-17609.17;105799;1253;60440;-50
2023/12/31 06:05:11;;;;;;;5.10;2.80;;;;;;;-147.86;100.00;-17609.17;105755;1257;73791;-56
2023/12/31 06:07:38;;;;;;;3.20;2.30;;;;;;;-147.86;100.00;-17609.17;105874;1257;64670;-52
2023/12/31 06:10:06;;;;;;;4.50;2.40;;;;;;;-147.86;100.00;-17609.17;105787;1253;72542;-51
2023/12/31 06:12:33;;;;;;;3.90;2.60;;;;;;;-147.86;100.00;-17609.17;105840;1258;60300;-52
2023/12/31 06:15:00;;;;;;;6.70;2.50;;;;;;;-147.86;100.00;-17609.17;105837;1253;61129;-51
2023/12/31 06:17:27;;;;;;;10.40;3.00;;;;;;;-147.86;100.00;-17609.17;105747;1256;73926;-53
2023/12/31 06:19:54;;;;;;;4.30;2.10;;;;;;;-147.86;100.00;-17609.17;105814;1259;64626;-52
2023/12/31 06:22:21;;;;;;;2.70;1.90;;;;;;;-147.86;100.00;-17609.17;105834;1253;72700;-55
2023/12/31 06:24:49;;;;;;;7.20;2.10;;;;;;;-147.86;100.00;-17609.17;105827;1257;60416;-53
2023/12/31 06:27:16;;;;;;;2.50;2.10;;;;;;;-147.86;100.00;-17609.17;105800;1253;60434;-55
2023/12/31 06:29:43;;;;;;;4.10;2.00;;;;;;;-147.86;100.00;-17609.17;105813;1256;72809;-51
2023/12/31 06:32:09;;;;;;;3.20;2.60;;;;;;;-147.86;100.00;-17609.17;105786;1256;65081;-50
2023/12/31 06:34:37;;;;;;;3.10;2.00;;;;;;;-147.86;100.00;-17609.17;105852;1253;72363;-52
2023/12/31 06:37:04;;;;;;;3.20;2.10;;;;;;;-147.86;100.00;-17609.17;105829;1257;60450;-53
2023/12/31 06:39:30;;;;;;;2.70;1.70;;;;;;;-147.86;100.00;-17609.17;105819;1253;60514;-54
2023/12/31 06:41:58;;;;;;;4.20;2.10;;;;;;;-147.86;100.00;-17609.17;105834;1257;73821;-52
2023/12/31 06:44:26;;;;;;;4.20;2.10;;;;;;;-147.86;100.00;-17609.17;105772;1258;64758;-52
2023/12/31 06:46:52;;;;;;;4.40;1.90;;;;;;;-147.86;100.00;-17609.17;105900;1253;71395;-51
2023/12/31 06:49:20;;;;;;;2.10;1.80;;;;;;;-147.86;100.00;-17609.17;105823;1258;60997;-51
2023/12/31 06:51:47;;;;;;;2.50;2.00;;;;;;;-147.86;100.00;-17609.17;105843;1254;60536;-53
2023/12/31 06:54:15;;;;;;;2.50;1.80;;;;;;;-147.86;100.00;-17609.17;105878;1254;73720;-53
2023/12/31 06:56:41;;;;;;;3.20;2.00;;;;;;;-147.86;100.00;-17609.17;105836;1256;64682;-51
2023/12/31 06:59:08;;;;;;;3.00;2.10;;;;;;;-147.86;100.00;-17609.17;105927;1254;72565;-55
2023/12/31 07:01:35;;;;;;;6.30;1.90;;;;;;;-147.86;100.00;-17609.17;105918;1256;60533;-53
2023/12/31 07:04:03;;;;;;;4.00;2.00;;;;;;;-147.86;100.00;-17609.17;105827;1254;60411;-52
2023/12/31 07:06:30;;;;;;;5.00;1.60;;;;;;;-147.86;100.00;-17609.17;105900;1254;73753;-55
2023/12/31 07:08:57;;;;;;;3.00;2.00;;;;;;;-147.86;100.00;-17609.17;105819;1256;64758;-55
2023/12/31 07:11:25;;;;;;;4.90;2.10;;;;;;;-147.86;100.00;-17609.17;105907;1257;72524;-56
2023/12/31 07:13:52;;;;;;;4.30;1.90;;;;;;;-147.86;100.00;-17609.17;105770;1256;60453;-55
2023/12/31 07:16:19;;;;;;;3.90;1.90;;;;;;;-147.86;100.00;-17609.17;105708;1254;60536;-54
2023/12/31 07:18:47;;;;;;;3.40;2.10;;;;;;;-147.86;100.00;-17609.17;105646;1256;74173;-51
2023/12/31 07:21:24;;;;;;;4.00;2.00;;;;;;;-147.86;100.00;-17609.17;105823;1257;64654;-56
2023/12/31 07:23:52;;;;;;;3.20;1.80;;;;;;;-147.86;100.00;-17609.17;105800;1253;72614;-59
2023/12/31 07:26:28;;;;;;;6.40;2.10;;;;;;;-147.86;100.00;-17609.17;105805;1259;61077;-59
2023/12/31 07:28:55;;;;;;;6.10;1.90;;;;;;;-147.86;100.00;-17609.17;105804;1253;60448;-56
2023/12/31 07:31:42;;;;;;;3.70;2.10;;;;;;;-147.86;100.00;-17609.17;105800;1258;73988;-55
2023/12/31 07:34:09;;;;;;;3.20;1.90;;;;;;;-147.86;100.00;-17609.17;105849;1257;64646;-55
2023/12/31 07:36:36;;;;;;;4.00;2.20;;;;;;;-147.86;100.00;-17609.17;105773;1258;72575;-54
2023/12/31 07:39:04;;;;;;;3.20;1.80;;;;;;;-147.86;100.00;-17609.17;105806;1257;61111;-52
2023/12/31 07:41:32;;;;;;;2.70;2.30;;;;;;;-147.86;100.00;-17609.17;105846;1253;60451;-50
2023/12/31 07:44:00;;;;;;;6.40;2.10;;;;;;;-147.86;100.00;-17609.17;105801;1253;73804;-52
2023/12/31 07:46:27;;;;;;;7.30;2.80;;;;;;;-147.86;100.00;-17609.17;105899;1259;65055;-54
2023/12/31 07:48:56;;;;;;;5.40;2.50;;;;;;;-147.86;100.00;-17609.17;105868;1253;72658;-53
2023/12/31 07:51:23;;;;;;;4.60;2.30;;;;;;;-147.86;100.00;-17609.17;105814;1253;60559;-52
2023/12/31 07:53:51;;;;;;;6.50;2.50;;;;;;;-147.86;100.00;-17609.17;105809;1253;60416;-53
2023/12/31 07:56:19;;;;;;;5.00;2.00;;;;;;;-147.86;100.00;-17609.17;105905;1255;73599;-53
2023/12/31 07:58:45;;;;;;;5.10;2.60;;;;;;;-147.86;100.00;-17609.17;105913;1257;64609;-55
2023/12/31 08:01:13;;;;;;;5.50;2.40;;;;;;;-147.86;100.00;-17609.17;105899;1254;72640;-55
2023/12/31 08:03:40;;;;;;;4.70;2.20;;;;;;;-147.86;100.00;-17609.17;105891;1256;61187;-54
2023/12/31 08:06:07;;;;;;;6.50;2.10;;;;;;;-147.86;100.00;-17609.17;105973;1254;60485;-55
2023/12/31 08:08:34;;;;;;;3.90;2.20;;;;;;;-147.86;100.00;-17609.17;105874;1254;73832;-53
2023/12/31 08:11:01;;;;;;;5.10;2.10;;;;;;;-147.86;100.00;-17609.17;105833;1257;64380;-52
2023/12/31 08:13:31;;;;;;;3.40;2.10;;;;;;;-147.86;100.00;-17609.17;105841;1255;71220;-54
2023/12/31 08:15:59;;;;;;;4.80;1.80;;;;;;;-147.86;100.00;-17609.17;105918;1256;61115;-56
2023/12/31 08:18:25;;;;;;;4.30;1.80;;;;;;;-147.86;100.00;-17609.17;105875;1253;60414;-52
2023/12/31 08:20:53;;;;;;;5.40;2.10;;;;;;;-147.86;100.00;-17609.17;105825;1256;73831;-56
2023/12/31 08:23:20;;;;;;;5.20;1.90;;;;;;;-147.86;100.00;-17609.17;105850;1256;64755;-51
2023/12/31 08:25:47;;;;;;;3.50;1.90;;;;;;;-147.86;100.00;-17609.17;105901;1254;72475;-52
2023/12/31 08:28:14;;;;;;;3.60;2.00;;;;;;;-147.86;100.00;-17609.17;105811;1256;61690;-53
2023/12/31 08:30:41;;;;;;;4.60;1.90;;;;;;;-147.86;100.00;-17609.17;105887;1254;60450;-54
2023/12/31 08:33:08;;;;;;;9.00;2.30;;;;;;;-147.86;100.00;-17609.17;105872;1254;73829;-52
2023/12/31 08:35:35;;;;;;;10.40;2.40;;;;;;;-147.86;100.00;-17609.17;105841;1257;64660;-52
2023/12/31 08:38:03;;;;;;;5.10;2.20;;;;;;;-147.86;100.00;-17609.17;105821;1254;72749;-52
2023/12/31 08:40:30;;;;;;;5.40;2.10;;;;;;;-147.86;100.00;-17609.17;105871;1254;60533;-55
2023/12/31 08:42:57;;;;;;;8.00;2.50;;;;;;;-147.86;100.00;-17609.17;105873;1257;60425;-54
2023/12/31 08:45:25;;;;;;;5.50;1.90;;;;;;;-147.86;100.00;-17609.17;105948;1256;73617;-55
2023/12/31 08:47:52;;;;;;;5.60;2.30;;;;;;;-147.86;100.00;-17609.17;105871;1256;64633;-52
2023/12/31 08:50:20;;;;;;;4.70;2.10;;;;;;;-147.86;100.00;-17609.17;105844;1254;72599;-51
2023/12/31 08:52:47;;;;;;;3.40;2.10;;;;;;;-147.86;100.00;-17609.17;105949;1256;60893;-52
2023/12/31 08:55:14;;;;;;;3.40;2.20;;;;;;;-147.86;100.00;-17609.17;105936;1253;60521;-52
2023/12/31 08:57:43;;;;;;;4.80;1.90;;;;;;;-147.86;100.00;-17609.17;105873;1256;72455;-51
2023/12/31 09:00:11;;;;;;;6.20;1.80;;;;;;;-147.86;100.00;-17609.17;105881;1256;64669;-52
2023/12/31 09:02:38;;;;;;;6.00;2.00;;;;;;;-147.86;100.00;-17609.17;106001;1254;72643;-55
2023/12/31 09:05:05;;;;;;;10.40;2.20;;;;;;;-147.86;100.00;-17609.17;105798;1256;60312;-53
2023/12/31 09:07:36;;;;;;;5.10;2.30;;;;;;;-147.86;100.00;-17609.17;105863;1257;60534;-54
2023/12/31 09:10:04;;;;;;;5.30;1.90;;;;;;;-147.86;100.00;-17609.17;105887;1255;73902;-55
2023/12/31 09:12:31;;;;;;;5.50;2.20;;;;;;;-147.86;100.00;-17609.17;105874;1257;64722;-52
2023/12/31 09:14:58;;;;;;;8.20;2.00;;;;;;;-147.86;100.00;-17609.17;105787;1254;72670;-55
2023/12/31 09:17:25;;;;;;;11.40;2.40;;;;;;;-147.86;100.00;-17609.17;105931;1257;60411;-54
2023/12/31 09:19:53;;;;;;;6.00;1.80;;;;;;;-147.86;100.00;-17609.17;105858;1253;60511;-53
2023/12/31 09:22:21;;;;;;;4.90;2.50;;;;;;;-147.86;100.00;-17609.17;105808;1255;73862;-52
2023/12/31 09:24:51;;;;;;;4.50;2.20;;;;;;;-147.86;100.00;-17609.17;105847;1257;64733;-54
2023/12/31 09:27:18;;;;;;;3.40;1.90;;;;;;;-147.86;100.00;-17609.17;105854;1258;72743;-53
2023/12/31 09:29:46;;;;;;;3.40;2.50;;;;;;;-147.86;100.00;-17609.17;105811;1253;60533;-51
2023/12/31 09:32:13;;;;;;;6.70;2.10;;;;;;;-147.86;100.00;-17609.17;105829;1253;60531;-52
2023/12/31 09:34:40;;;;;;;4.60;2.30;;;;;;;-147.86;100.00;-17609.17;105408;1253;383037;-55
2023/12/31 09:39:43;;;;;;;4.40;2.70;;;;;;;-147.86;100.00;-17609.17;102438;1291;599925;-56
2023/12/31 09:42:12;;;;;;;4.40;2.10;;;;;;;-147.86;100.00;-17609.17;105075;1268;59314;-53
2023/12/31 09:44:41;;;;;;;3.20;1.90;;;;;;;-147.86;100.00;-17609.17;105125;1268;59125;-52
2023/12/31 09:47:11;;;;;;;9.60;2.60;;;;;;;-147.86;100.00;-17609.17;105077;1266;71288;-54
2023/12/31 09:49:39;;;;;;;5.30;2.70;;;;;;;-147.86;100.00;-17609.17;105132;1264;62177;-49
2023/12/31 09:52:07;;;;;;;5.50;2.80;;;;;;;-147.86;100.00;-17609.17;105030;1269;213322;-52
2023/12/31 09:54:40;;;;;;;3.90;2.60;;;;;;;-147.86;100.00;-17609.17;105251;1265;59339;-51
2023/12/31 09:57:07;;;;;;;3.80;2.50;;;;;;;-147.86;100.00;-17609.17;105244;1263;60079;-54
2023/12/31 09:59:35;;;;;;;7.00;2.00;;;;;;;-147.86;100.00;-17609.17;105176;1263;72025;-51
2023/12/31 10:02:04;;;;;;;3.90;2.20;;;;;;;-147.86;100.00;-17609.17;105316;1265;63601;-53
2023/12/31 10:04:31;;;;;;;4.70;2.30;;;;;;;-147.86;99.90;-17609.17;105242;1263;71530;-54
2023/12/31 10:06:59;;;;;;;8.30;2.30;;;;;;;-147.86;99.60;-17609.17;105733;1253;59908;-52
2023/12/31 10:09:30;;;;;;;4.30;2.50;;;;;;;-147.86;99.55;-17609.17;105773;1254;60170;-51
2023/12/31 10:12:02;;;;;;;5.40;2.30;;;;;;;-147.86;100.00;-17609.17;105665;1254;71470;-50
2023/12/31 10:14:30;;;;;;;4.90;2.40;;;;;;;-147.86;99.92;-17609.17;105729;1257;64634;-52
2023/12/31 10:16:56;;;;;;;3.80;2.60;;;;;;;-147.86;99.53;-17609.17;105697;1254;72614;-53
2023/12/31 10:19:24;;;;;;;3.30;2.30;;;;;;;-147.86;98.36;-17609.17;105650;1258;59711;-52
2023/12/31 10:21:51;;;;;;;2.60;2.10;;;;;;;-147.86;98.18;-17609.17;105653;1254;60300;-53
2023/12/31 10:24:26;;;;;;;5.60;2.40;;;;;;;-147.86;97.59;-17609.17;105746;1258;72892;-55
2023/12/31 10:26:55;;;;;;;7.40;2.10;;;;;;;-147.86;97.04;-17609.17;105715;1258;63164;-53
2023/12/31 10:29:22;;;;;;;6.10;2.40;;;;;;;-147.86;96.78;-17609.17;105640;1259;71400;-52
2023/12/31 10:31:48;;;;;;;4.30;2.20;;;;;;;-147.86;95.48;-17609.17;105635;1259;59715;-53
2023/12/31 10:34:16;;;;;;;6.50;2.50;;;;;;;-147.86;95.58;-17609.17;105660;1254;60156;-52
2023/12/31 10:36:45;;;;;;;3.60;2.20;;;;;;;-147.86;95.49;-17609.17;105739;1255;72657;-53
2023/12/31 10:39:29;;;;;;;3.10;2.20;;;;;;;-147.86;95.75;-17609.17;105667;1259;64842;-53
2023/12/31 10:42:04;;;;;;;5.80;2.10;;;;;;;-147.86;96.64;-17609.17;105534;1254;71571;-55
2023/12/31 10:44:38;;;;;;;3.80;2.20;;;;;;;-147.86;97.31;-17609.17;105395;1254;59990;-55
2023/12/31 10:47:07;;;;;;;3.30;2.10;;;;;;;-147.86;97.93;-17609.17;105572;1253;60197;-54
2023/12/31 10:49:34;;;;;;;5.70;2.60;;;;;;;-147.86;98.70;-17609.17;105679;1258;73264;-57
2023/12/31 10:52:03;;;;;;;3.50;2.40;;;;;;;-147.86;99.27;-17609.17;105686;1258;64460;-56
2023/12/31 10:54:42;;;;;;;8.80;2.60;;;;;;;-147.86;99.47;-17609.17;105699;1259;72537;-54
2023/12/31 10:57:09;;;;;;;5.00;2.70;;;;;;;-147.86;98.44;-17609.17;105632;1258;59717;-53